Time,TemperatureF,DewpointF,PressureIn,WindDirection,WindDirectionDegrees,WindSpeedMPH,WindSpeedGustMPH,Humidity,HourlyPrecipIn,Conditions,Clouds,dailyrainin,SoftwareType,DateUTC
2013-07-29 00:02:00,52.9,51.2,0.00,NW,314,0.1,2.4,94,0.00,,,0.00,WUHU216CR1000,2013-07-29 07:02:00,
2013-07-29 00:07:00,53.9,52.1,0.00,NW,314,0.8,5.4,94,0.00,,,0.00,WUHU216CR1000,2013-07-29 07:07:00,
2013-07-29 00:12:00,53.9,52.1,0.00,NW,314,0.8,5.4,94,0.00,,,0.00,WUHU216CR1000,2013-07-29 07:12:00,
2013-07-29 00:17:00,53.9,52.1,0.00,NW,314,0.8,5.4,94,0.00,,,0.00,WUHU216CR1000,2013-07-29 07:17:00,
2013-07-29 00:22:00,53.9,52.1,0.00,NW,314,0.8,5.4,94,0.00,,,0.00,WUHU216CR1000,2013-07-29 07:22:00,
2013-07-29 00:27:00,53.9,52.1,0.00,NW,314,0.8,5.4,94,0.00,,,0.00,WUHU216CR1000,2013-07-29 07:27:00,
2013-07-29 00:32:00,53.9,52.1,0.00,NW,314,0.8,5.4,94,0.00,,,0.00,WUHU216CR1000,2013-07-29 07:32:00,
2013-07-29 00:37:00,53.9,52.1,0.00,NW,314,0.8,5.4,94,0.00,,,0.00,WUHU216CR1000,2013-07-29 07:37:00,
2013-07-29 00:42:00,53.9,52.1,0.00,NW,314,0.8,5.4,94,0.00,,,0.00,WUHU216CR1000,2013-07-29 07:42:00,
2013-07-29 00:47:00,53.9,52.1,0.00,NW,314,0.8,5.4,94,0.00,,,0.00,WUHU216CR1000,2013-07-29 07:47:00,
2013-07-29 00:52:00,53.9,52.1,0.00,NW,314,0.8,5.4,94,0.00,,,0.00,WUHU216CR1000,2013-07-29 07:52:00,
2013-07-29 00:57:00,53.9,52.1,0.00,NW,314,0.8,5.4,94,0.00,,,0.00,WUHU216CR1000,2013-07-29 07:57:00,
2013-07-29 01:02:00,53.9,52.1,0.00,NW,314,0.8,5.4,94,0.00,,,0.00,WUHU216CR1000,2013-07-29 08:02:00,
2013-07-29 01:07:00,53.5,52.0,0.00,NW,314,1.1,5.4,94,0.00,,,0.00,WUHU216CR1000,2013-07-29 08:07:00,
2013-07-29 01:12:00,53.5,52.0,0.00,NW,314,1.1,4.6,94,0.00,,,0.00,WUHU216CR1000,2013-07-29 08:12:00,
2013-07-29 01:17:00,53.5,52.0,0.00,NW,314,1.1,4.6,94,0.00,,,0.00,WUHU216CR1000,2013-07-29 08:17:00,
2013-07-29 01:22:00,53.5,52.0,0.00,NW,314,1.1,4.6,94,0.00,,,0.00,WUHU216CR1000,2013-07-29 08:22:00,
2013-07-29 01:27:00,53.5,52.0,0.00,NW,314,1.1,4.6,94,0.00,,,0.00,WUHU216CR1000,2013-07-29 08:27:00,
2013-07-29 01:32:00,53.5,52.0,0.00,NW,314,1.1,4.6,94,0.00,,,0.00,WUHU216CR1000,2013-07-29 08:32:00,
2013-07-29 01:37:00,53.5,52.0,0.00,NW,314,1.1,4.6,94,0.00,,,0.00,WUHU216CR1000,2013-07-29 08:37:00,
2013-07-29 01:42:00,53.5,52.0,0.00,NW,314,1.1,4.6,94,0.00,,,0.00,WUHU216CR1000,2013-07-29 08:42:00,
2013-07-29 01:47:00,53.5,52.0,0.00,NW,314,1.1,4.6,94,0.00,,,0.00,WUHU216CR1000,2013-07-29 08:47:00,
2013-07-29 01:52:00,53.5,52.0,0.00,NW,314,1.1,4.6,94,0.00,,,0.00,WUHU216CR1000,2013-07-29 08:52:00,
2013-07-29 01:57:00,53.5,52.0,0.00,NW,314,1.1,4.6,94,0.00,,,0.00,WUHU216CR1000,2013-07-29 08:57:00,
2013-07-29 02:02:00,53.5,52.0,0.00,NW,314,1.1,4.6,94,0.00,,,0.00,WUHU216CR1000,2013-07-29 09:02:00,
2013-07-29 02:07:00,53.7,52.0,0.00,NW,314,0.5,4.6,94,0.00,,,0.00,WUHU216CR1000,2013-07-29 09:07:00,
2013-07-29 02:12:00,53.7,52.0,0.00,NW,314,0.5,4.1,94,0.00,,,0.00,WUHU216CR1000,2013-07-29 09:12:00,
2013-07-29 02:17:00,53.7,52.0,0.00,NW,314,0.5,4.1,94,0.00,,,0.00,WUHU216CR1000,2013-07-29 09:17:00,
2013-07-29 02:22:00,53.7,52.0,0.00,NW,314,0.5,4.1,94,0.00,,,0.00,WUHU216CR1000,2013-07-29 09:22:00,
2013-07-29 02:27:00,53.7,52.0,0.00,NW,314,0.5,4.1,94,0.00,,,0.00,WUHU216CR1000,2013-07-29 09:27:00,
2013-07-29 02:32:00,53.7,52.0,0.00,NW,314,0.5,4.1,94,0.00,,,0.00,WUHU216CR1000,2013-07-29 09:32:00,
2013-07-29 02:37:00,53.7,52.0,0.00,NW,314,0.5,4.1,94,0.00,,,0.00,WUHU216CR1000,2013-07-29 09:37:00,
2013-07-29 02:42:00,53.7,52.0,0.00,NW,314,0.5,4.1,94,0.00,,,0.00,WUHU216CR1000,2013-07-29 09:42:00,
2013-07-29 02:47:00,53.7,52.0,0.00,NW,314,0.5,4.1,94,0.00,,,0.00,WUHU216CR1000,2013-07-29 09:47:00,
2013-07-29 02:52:00,53.7,52.0,0.00,NW,314,0.5,4.1,94,0.00,,,0.00,WUHU216CR1000,2013-07-29 09:52:00,
2013-07-29 02:57:00,53.7,52.0,0.00,NW,314,0.5,4.1,94,0.00,,,0.00,WUHU216CR1000,2013-07-29 09:57:00,
2013-07-29 03:02:00,53.7,52.0,0.00,NW,314,0.5,4.1,94,0.00,,,0.00,WUHU216CR1000,2013-07-29 10:02:00,
2013-07-29 03:07:00,53.5,52.0,0.00,NW,314,0.6,4.1,95,0.00,,,0.00,WUHU216CR1000,2013-07-29 10:07:00,
2013-07-29 03:12:00,53.5,52.0,0.00,NW,314,0.6,3.6,95,0.00,,,0.00,WUHU216CR1000,2013-07-29 10:12:00,
2013-07-29 03:17:00,53.5,52.0,0.00,NW,314,0.6,3.6,95,0.00,,,0.00,WUHU216CR1000,2013-07-29 10:17:00,
2013-07-29 03:22:00,53.5,52.0,0.00,NW,314,0.6,3.6,95,0.00,,,0.00,WUHU216CR1000,2013-07-29 10:22:00,
2013-07-29 03:27:00,53.5,52.0,0.00,NW,314,0.6,3.6,95,0.00,,,0.00,WUHU216CR1000,2013-07-29 10:27:00,
2013-07-29 03:33:00,53.5,52.0,0.00,NW,314,0.6,3.6,95,0.00,,,0.00,WUHU216CR1000,2013-07-29 10:33:00,
2013-07-29 03:38:00,53.5,52.0,0.00,NW,314,0.6,3.6,95,0.00,,,0.00,WUHU216CR1000,2013-07-29 10:38:00,
2013-07-29 03:43:00,53.5,52.0,0.00,NW,314,0.6,3.6,95,0.00,,,0.00,WUHU216CR1000,2013-07-29 10:43:00,
2013-07-29 03:48:00,53.5,52.0,0.00,NW,314,0.6,3.6,95,0.00,,,0.00,WUHU216CR1000,2013-07-29 10:48:00,
2013-07-29 03:53:00,53.5,52.0,0.00,NW,314,0.6,3.6,95,0.00,,,0.00,WUHU216CR1000,2013-07-29 10:53:00,
2013-07-29 03:58:00,53.5,52.0,0.00,NW,314,0.6,3.6,95,0.00,,,0.00,WUHU216CR1000,2013-07-29 10:58:00,
2013-07-29 04:03:00,53.5,52.0,0.00,NW,314,0.6,3.6,95,0.00,,,0.00,WUHU216CR1000,2013-07-29 11:03:00,
2013-07-29 04:08:00,53.6,52.0,0.00,NW,314,0.0,3.6,95,0.00,,,0.00,WUHU216CR1000,2013-07-29 11:08:00,
2013-07-29 04:13:00,53.6,52.0,0.00,NW,314,0.0,1.9,95,0.00,,,0.00,WUHU216CR1000,2013-07-29 11:13:00,
2013-07-29 04:18:00,53.6,52.0,0.00,NW,314,0.0,1.9,95,0.00,,,0.00,WUHU216CR1000,2013-07-29 11:18:00,
2013-07-29 04:23:00,53.6,52.0,0.00,NW,314,0.0,1.9,95,0.00,,,0.00,WUHU216CR1000,2013-07-29 11:23:00,
2013-07-29 04:29:00,53.6,52.0,0.00,NW,314,0.0,1.9,95,0.00,,,0.00,WUHU216CR1000,2013-07-29 11:29:00,
2013-07-29 04:34:00,53.6,52.0,0.00,NW,314,0.0,1.9,95,0.00,,,0.00,WUHU216CR1000,2013-07-29 11:34:00,
2013-07-29 04:39:00,53.6,52.0,0.00,NW,314,0.0,1.9,95,0.00,,,0.00,WUHU216CR1000,2013-07-29 11:39:00,
2013-07-29 04:44:00,53.6,52.0,0.00,NW,314,0.0,1.9,95,0.00,,,0.00,WUHU216CR1000,2013-07-29 11:44:00,
2013-07-29 04:49:00,53.6,52.0,0.00,NW,314,0.0,1.9,95,0.00,,,0.00,WUHU216CR1000,2013-07-29 11:49:00,
2013-07-29 04:54:00,53.6,52.0,0.00,NW,314,0.0,1.9,95,0.00,,,0.00,WUHU216CR1000,2013-07-29 11:54:00,
2013-07-29 04:59:00,53.6,52.0,0.00,NW,314,0.0,1.9,95,0.00,,,0.00,WUHU216CR1000,2013-07-29 11:59:00,
2013-07-29 05:04:00,53.6,52.0,0.00,NW,314,0.0,1.9,95,0.00,,,0.00,WUHU216CR1000,2013-07-29 12:04:00,
2013-07-29 05:09:00,53.5,52.1,0.00,NW,314,0.0,1.9,95,0.00,,,0.00,WUHU216CR1000,2013-07-29 12:09:00,
2013-07-29 05:14:00,53.5,52.1,0.00,NW,314,0.0,1.2,95,0.00,,,0.00,WUHU216CR1000,2013-07-29 12:14:00,
2013-07-29 05:19:00,53.5,52.1,0.00,NW,314,0.0,1.2,95,0.00,,,0.00,WUHU216CR1000,2013-07-29 12:19:00,
2013-07-29 05:24:00,53.5,52.1,0.00,NW,314,0.0,1.2,95,0.00,,,0.00,WUHU216CR1000,2013-07-29 12:24:00,
2013-07-29 05:29:00,53.5,52.1,0.00,NW,314,0.0,1.2,95,0.00,,,0.00,WUHU216CR1000,2013-07-29 12:29:00,
2013-07-29 05:34:00,53.5,52.1,0.00,NW,314,0.0,1.2,95,0.00,,,0.00,WUHU216CR1000,2013-07-29 12:34:00,
2013-07-29 05:40:00,53.5,52.1,0.00,NW,314,0.0,1.2,95,0.00,,,0.00,WUHU216CR1000,2013-07-29 12:40:00,
2013-07-29 05:45:00,53.5,52.1,0.00,NW,314,0.0,1.2,95,0.00,,,0.00,WUHU216CR1000,2013-07-29 12:45:00,
2013-07-29 05:50:00,53.5,52.1,0.00,NW,314,0.0,1.2,95,0.00,,,0.00,WUHU216CR1000,2013-07-29 12:50:00,
2013-07-29 05:55:00,53.5,52.1,0.00,NW,314,0.0,1.2,95,0.00,,,0.00,WUHU216CR1000,2013-07-29 12:55:00,
2013-07-29 06:00:00,53.5,52.1,0.00,NW,314,0.0,1.2,95,0.00,,,0.00,WUHU216CR1000,2013-07-29 13:00:00,
2013-07-29 06:05:00,53.5,52.1,0.00,NW,314,0.0,1.2,95,0.00,,,0.00,WUHU216CR1000,2013-07-29 13:05:00,
2013-07-29 06:10:00,53.5,52.3,0.00,NW,314,0.1,2.9,96,0.00,,,0.00,WUHU216CR1000,2013-07-29 13:10:00,
2013-07-29 06:15:00,53.5,52.3,0.00,NW,314,0.1,2.9,96,0.00,,,0.00,WUHU216CR1000,2013-07-29 13:15:00,
2013-07-29 06:20:00,53.5,52.3,0.00,NW,314,0.1,2.9,96,0.00,,,0.00,WUHU216CR1000,2013-07-29 13:20:00,
2013-07-29 06:25:00,53.5,52.3,0.00,NW,314,0.1,2.9,96,0.00,,,0.00,WUHU216CR1000,2013-07-29 13:25:00,
2013-07-29 06:30:00,53.5,52.3,0.00,NW,314,0.1,2.9,96,0.00,,,0.00,WUHU216CR1000,2013-07-29 13:30:00,
2013-07-29 06:35:00,53.5,52.3,0.00,NW,314,0.1,2.9,96,0.00,,,0.00,WUHU216CR1000,2013-07-29 13:35:00,
2013-07-29 06:40:00,53.5,52.3,0.00,NW,314,0.1,2.9,96,0.00,,,0.00,WUHU216CR1000,2013-07-29 13:40:00,
2013-07-29 06:45:00,53.5,52.3,0.00,NW,314,0.1,2.9,96,0.00,,,0.00,WUHU216CR1000,2013-07-29 13:45:00,
2013-07-29 06:50:00,53.5,52.3,0.00,NW,314,0.1,2.9,96,0.00,,,0.00,WUHU216CR1000,2013-07-29 13:50:00,
2013-07-29 06:56:00,53.5,52.3,0.00,NW,314,0.1,2.9,96,0.00,,,0.00,WUHU216CR1000,2013-07-29 13:56:00,
2013-07-29 07:01:00,53.5,52.3,0.00,NW,314,0.1,2.9,96,0.00,,,0.00,WUHU216CR1000,2013-07-29 14:01:00,
2013-07-29 07:06:00,53.5,52.3,0.00,NW,314,0.1,2.9,96,0.00,,,0.00,WUHU216CR1000,2013-07-29 14:06:00,
2013-07-29 07:11:00,53.5,52.3,0.00,NW,314,0.1,2.9,96,0.00,,,0.00,WUHU216CR1000,2013-07-29 14:11:00,
2013-07-29 07:17:00,53.5,52.3,0.00,NW,314,0.1,2.9,96,0.00,,,0.00,WUHU216CR1000,2013-07-29 14:17:00,
2013-07-29 07:23:00,53.5,52.3,0.00,NW,314,0.1,2.9,96,0.00,,,0.00,WUHU216CR1000,2013-07-29 14:23:00,
2013-07-29 07:28:00,53.5,52.3,0.00,NW,314,0.1,2.9,96,0.00,,,0.00,WUHU216CR1000,2013-07-29 14:28:00,
2013-07-29 07:33:00,53.5,52.3,0.00,NW,314,0.1,2.9,96,0.00,,,0.00,WUHU216CR1000,2013-07-29 14:33:00,
2013-07-29 07:38:00,53.5,52.3,0.00,NW,314,0.1,2.9,96,0.00,,,0.00,WUHU216CR1000,2013-07-29 14:38:00,
2013-07-29 07:43:00,53.5,52.3,0.00,NW,314,0.1,2.9,96,0.00,,,0.00,WUHU216CR1000,2013-07-29 14:43:00,
2013-07-29 07:48:00,53.5,52.3,0.00,NW,314,0.1,2.9,96,0.00,,,0.00,WUHU216CR1000,2013-07-29 14:48:00,
2013-07-29 07:53:00,53.5,52.3,0.00,NW,314,0.1,2.9,96,0.00,,,0.00,WUHU216CR1000,2013-07-29 14:53:00,
2013-07-29 07:58:00,53.5,52.3,0.00,NW,314,0.1,2.9,96,0.00,,,0.00,WUHU216CR1000,2013-07-29 14:58:00,
2013-07-29 08:03:00,53.5,52.3,0.00,NW,314,0.1,2.9,96,0.00,,,0.00,WUHU216CR1000,2013-07-29 15:03:00,
2013-07-29 08:08:00,53.4,51.5,0.00,NW,314,0.2,3.8,93,0.00,,,0.00,WUHU216CR1000,2013-07-29 15:08:00,
2013-07-29 08:13:00,53.4,51.5,0.00,NW,314,0.2,3.8,93,0.00,,,0.00,WUHU216CR1000,2013-07-29 15:13:00,
2013-07-29 08:18:00,53.4,51.5,0.00,NW,314,0.2,3.8,93,0.00,,,0.00,WUHU216CR1000,2013-07-29 15:18:00,
2013-07-29 08:24:00,53.4,51.5,0.00,NW,314,0.2,3.8,93,0.00,,,0.00,WUHU216CR1000,2013-07-29 15:24:00,
2013-07-29 08:29:00,53.4,51.5,0.00,NW,314,0.2,3.8,93,0.00,,,0.00,WUHU216CR1000,2013-07-29 15:29:00,
2013-07-29 08:34:00,53.4,51.5,0.00,NW,314,0.2,3.8,93,0.00,,,0.00,WUHU216CR1000,2013-07-29 15:34:00,
2013-07-29 08:39:00,53.4,51.5,0.00,NW,314,0.2,3.8,93,0.00,,,0.00,WUHU216CR1000,2013-07-29 15:39:00,
2013-07-29 08:44:00,53.4,51.5,0.00,NW,314,0.2,3.8,93,0.00,,,0.00,WUHU216CR1000,2013-07-29 15:44:00,
2013-07-29 08:49:00,53.4,51.5,0.00,NW,314,0.2,3.8,93,0.00,,,0.00,WUHU216CR1000,2013-07-29 15:49:00,
2013-07-29 08:54:00,53.4,51.5,0.00,NW,314,0.2,3.8,93,0.00,,,0.00,WUHU216CR1000,2013-07-29 15:54:00,
2013-07-29 08:59:00,53.4,51.5,0.00,NW,314,0.2,3.8,93,0.00,,,0.00,WUHU216CR1000,2013-07-29 15:59:00,
2013-07-29 09:04:00,53.4,51.5,0.00,NW,314,0.2,3.8,93,0.00,,,0.00,WUHU216CR1000,2013-07-29 16:04:00,
2013-07-29 09:09:00,54.4,51.5,0.00,NW,314,0.2,3.8,90,0.00,,,0.00,WUHU216CR1000,2013-07-29 16:09:00,
2013-07-29 09:14:00,54.4,51.5,0.00,NW,314,0.2,3.8,90,0.00,,,0.00,WUHU216CR1000,2013-07-29 16:14:00,
2013-07-29 09:20:00,54.4,51.5,0.00,NW,314,0.2,3.8,90,0.00,,,0.00,WUHU216CR1000,2013-07-29 16:20:00,
2013-07-29 09:26:00,54.4,51.5,0.00,NW,314,0.2,3.8,90,0.00,,,0.00,WUHU216CR1000,2013-07-29 16:26:00,
2013-07-29 09:31:00,54.4,51.5,0.00,NW,314,0.2,3.8,90,0.00,,,0.00,WUHU216CR1000,2013-07-29 16:31:00,
2013-07-29 09:36:00,54.4,51.5,0.00,NW,314,0.2,3.8,90,0.00,,,0.00,WUHU216CR1000,2013-07-29 16:36:00,
2013-07-29 09:41:00,54.4,51.5,0.00,NW,314,0.2,3.8,90,0.00,,,0.00,WUHU216CR1000,2013-07-29 16:41:00,
2013-07-29 09:46:00,54.4,51.5,0.00,NW,314,0.2,3.8,90,0.00,,,0.00,WUHU216CR1000,2013-07-29 16:46:00,
2013-07-29 09:51:00,54.4,51.5,0.00,NW,314,0.2,3.8,90,0.00,,,0.00,WUHU216CR1000,2013-07-29 16:51:00,
2013-07-29 09:56:00,54.4,51.5,0.00,NW,314,0.2,3.8,90,0.00,,,0.00,WUHU216CR1000,2013-07-29 16:56:00,
2013-07-29 10:01:00,54.4,51.5,0.00,NW,314,0.2,3.8,90,0.00,,,0.00,WUHU216CR1000,2013-07-29 17:01:00,
2013-07-29 10:06:00,54.4,51.5,0.00,NW,314,0.2,3.8,90,0.00,,,0.00,WUHU216CR1000,2013-07-29 17:06:00,
2013-07-29 10:12:00,54.4,51.5,0.00,NW,314,0.2,3.8,90,0.00,,,0.00,WUHU216CR1000,2013-07-29 17:12:00,
2013-07-29 12:31:00,55.3,52.2,0.00,NW,314,0.5,4.3,89,0.00,,,0.00,WUHU216CR1000,2013-07-29 19:31:00,
2013-07-29 12:36:00,55.3,52.2,0.00,NW,314,0.5,4.3,89,0.00,,,0.00,WUHU216CR1000,2013-07-29 19:36:00,
2013-07-29 12:42:00,55.3,52.2,0.00,NW,314,0.5,4.3,89,0.00,,,0.00,WUHU216CR1000,2013-07-29 19:42:00,
2013-07-29 12:47:00,55.3,52.2,0.00,NW,314,0.5,4.3,89,0.00,,,0.00,WUHU216CR1000,2013-07-29 19:47:00,
2013-07-29 12:52:00,55.3,52.2,0.00,NW,314,0.5,4.3,89,0.00,,,0.00,WUHU216CR1000,2013-07-29 19:52:00,
2013-07-29 12:57:00,55.3,52.2,0.00,NW,314,0.5,4.3,89,0.00,,,0.00,WUHU216CR1000,2013-07-29 19:57:00,
2013-07-29 13:03:00,55.3,52.2,0.00,NW,314,0.5,4.3,89,0.00,,,0.00,WUHU216CR1000,2013-07-29 20:03:00,
2013-07-29 13:08:00,61.9,54.0,0.00,NW,318,2.7,7.8,75,0.00,,,0.00,WUHU216CR1000,2013-07-29 20:08:00,
2013-07-29 13:13:00,61.9,54.0,0.00,NW,318,2.7,7.8,75,0.00,,,0.00,WUHU216CR1000,2013-07-29 20:13:00,
2013-07-29 13:18:00,61.9,54.0,0.00,NW,318,2.7,7.8,75,0.00,,,0.00,WUHU216CR1000,2013-07-29 20:18:00,
2013-07-29 13:23:00,61.9,54.0,0.00,NW,318,2.7,7.8,75,0.00,,,0.00,WUHU216CR1000,2013-07-29 20:23:00,
2013-07-29 13:28:00,61.9,54.0,0.00,NW,318,2.7,7.8,75,0.00,,,0.00,WUHU216CR1000,2013-07-29 20:28:00,
2013-07-29 13:33:00,61.9,54.0,0.00,NW,318,2.7,7.8,75,0.00,,,0.00,WUHU216CR1000,2013-07-29 20:33:00,
2013-07-29 13:39:00,61.9,54.0,0.00,NW,318,2.7,7.8,75,0.00,,,0.00,WUHU216CR1000,2013-07-29 20:39:00,
2013-07-29 13:44:00,61.9,54.0,0.00,NW,318,2.7,7.8,75,0.00,,,0.00,WUHU216CR1000,2013-07-29 20:44:00,
2013-07-29 13:49:00,61.9,54.0,0.00,NW,318,2.7,7.8,75,0.00,,,0.00,WUHU216CR1000,2013-07-29 20:49:00,
2013-07-29 13:54:00,61.9,54.0,0.00,NW,318,2.7,7.8,75,0.00,,,0.00,WUHU216CR1000,2013-07-29 20:54:00,
2013-07-29 13:59:00,61.9,54.0,0.00,NW,318,2.7,7.8,75,0.00,,,0.00,WUHU216CR1000,2013-07-29 20:59:00,
2013-07-29 14:05:00,61.9,54.0,0.00,NW,318,2.7,7.8,75,0.00,,,0.00,WUHU216CR1000,2013-07-29 21:05:00,
2013-07-29 14:10:00,66.0,54.6,0.00,NW,320,2.7,8.3,67,0.00,,,0.00,WUHU216CR1000,2013-07-29 21:10:00,
2013-07-29 14:15:00,66.0,54.6,0.00,NW,320,2.7,8.3,67,0.00,,,0.00,WUHU216CR1000,2013-07-29 21:15:00,
2013-07-29 14:20:00,66.0,54.6,0.00,NW,320,2.7,8.3,67,0.00,,,0.00,WUHU216CR1000,2013-07-29 21:20:00,
2013-07-29 14:25:00,66.0,54.6,0.00,NW,320,2.7,8.3,67,0.00,,,0.00,WUHU216CR1000,2013-07-29 21:25:00,
2013-07-29 14:30:00,66.0,54.6,0.00,NW,320,2.7,8.3,67,0.00,,,0.00,WUHU216CR1000,2013-07-29 21:30:00,
2013-07-29 14:35:00,66.0,54.6,0.00,NW,320,2.7,8.3,67,0.00,,,0.00,WUHU216CR1000,2013-07-29 21:35:00,
2013-07-29 14:41:00,66.0,54.6,0.00,NW,320,2.7,8.3,67,0.00,,,0.00,WUHU216CR1000,2013-07-29 21:41:00,
2013-07-29 14:46:00,66.0,54.6,0.00,NW,320,2.7,8.3,67,0.00,,,0.00,WUHU216CR1000,2013-07-29 21:46:00,
2013-07-29 14:51:00,66.0,54.6,0.00,NW,320,2.7,8.3,67,0.00,,,0.00,WUHU216CR1000,2013-07-29 21:51:00,
2013-07-29 14:56:00,66.0,54.6,0.00,NW,320,2.7,8.3,67,0.00,,,0.00,WUHU216CR1000,2013-07-29 21:56:00,
2013-07-29 15:02:00,66.0,54.6,0.00,NW,320,2.7,8.3,67,0.00,,,0.00,WUHU216CR1000,2013-07-29 22:02:00,
2013-07-29 15:07:00,69.5,54.7,0.00,NW,322,3.1,9.5,59,0.00,,,0.00,WUHU216CR1000,2013-07-29 22:07:00,
2013-07-29 15:12:00,69.5,54.7,0.00,NW,322,3.1,9.5,59,0.00,,,0.00,WUHU216CR1000,2013-07-29 22:12:00,
2013-07-29 15:17:00,69.5,54.7,0.00,NW,322,3.1,9.5,59,0.00,,,0.00,WUHU216CR1000,2013-07-29 22:17:00,
2013-07-29 15:22:00,69.5,54.7,0.00,NW,322,3.1,9.5,59,0.00,,,0.00,WUHU216CR1000,2013-07-29 22:22:00,
2013-07-29 15:27:00,69.5,54.7,0.00,NW,322,3.1,9.5,59,0.00,,,0.00,WUHU216CR1000,2013-07-29 22:27:00,
2013-07-29 15:32:00,69.5,54.7,0.00,NW,322,3.1,9.5,59,0.00,,,0.00,WUHU216CR1000,2013-07-29 22:32:00,
2013-07-29 15:37:00,69.5,54.7,0.00,NW,322,3.1,9.5,59,0.00,,,0.00,WUHU216CR1000,2013-07-29 22:37:00,
2013-07-29 15:42:00,69.5,54.7,0.00,NW,322,3.1,9.5,59,0.00,,,0.00,WUHU216CR1000,2013-07-29 22:42:00,
2013-07-29 15:47:00,69.5,54.7,0.00,NW,322,3.1,9.5,59,0.00,,,0.00,WUHU216CR1000,2013-07-29 22:47:00,
2013-07-29 15:52:00,69.5,54.7,0.00,NW,322,3.1,9.5,59,0.00,,,0.00,WUHU216CR1000,2013-07-29 22:52:00,
2013-07-29 15:57:00,69.5,54.7,0.00,NW,322,3.1,9.5,59,0.00,,,0.00,WUHU216CR1000,2013-07-29 22:57:00,
2013-07-29 16:02:00,69.5,54.7,0.00,NW,322,3.1,9.5,59,0.00,,,0.00,WUHU216CR1000,2013-07-29 23:02:00,
2013-07-29 16:07:00,69.5,54.7,0.00,NW,322,3.1,9.5,59,0.00,,,0.00,WUHU216CR1000,2013-07-29 23:07:00,
2013-07-29 16:12:00,72.8,54.8,0.00,NW,326,3.2,10.5,53,0.00,,,0.00,WUHU216CR1000,2013-07-29 23:12:00,
2013-07-29 16:17:00,72.8,54.8,0.00,NW,326,3.2,10.5,53,0.00,,,0.00,WUHU216CR1000,2013-07-29 23:17:00,
2013-07-29 16:23:00,72.8,54.8,0.00,NW,326,3.2,10.5,53,0.00,,,0.00,WUHU216CR1000,2013-07-29 23:23:00,
2013-07-29 16:28:00,72.8,54.8,0.00,NW,326,3.2,10.5,53,0.00,,,0.00,WUHU216CR1000,2013-07-29 23:28:00,
2013-07-29 16:33:00,72.8,54.8,0.00,NW,326,3.2,10.5,53,0.00,,,0.00,WUHU216CR1000,2013-07-29 23:33:00,
2013-07-29 16:38:00,72.8,54.8,0.00,NW,326,3.2,10.5,53,0.00,,,0.00,WUHU216CR1000,2013-07-29 23:38:00,
2013-07-29 16:43:00,72.8,54.8,0.00,NW,326,3.2,10.5,53,0.00,,,0.00,WUHU216CR1000,2013-07-29 23:43:00,
2013-07-29 16:49:00,72.8,54.8,0.00,NW,326,3.2,10.5,53,0.00,,,0.00,WUHU216CR1000,2013-07-29 23:49:00,
2013-07-29 16:54:00,72.8,54.8,0.00,NW,326,3.2,10.5,53,0.00,,,0.00,WUHU216CR1000,2013-07-29 23:54:00,
2013-07-29 16:59:00,72.8,54.8,0.00,NW,326,3.2,10.5,53,0.00,,,0.00,WUHU216CR1000,2013-07-29 23:59:00,
2013-07-29 17:04:00,72.8,54.8,0.00,NW,326,3.2,10.5,53,0.00,,,0.00,WUHU216CR1000,2013-07-30 00:04:00,
2013-07-29 17:09:00,74.3,55.4,0.00,NNW,335,3.7,10.5,52,0.00,,,0.00,WUHU216CR1000,2013-07-30 00:09:00,
2013-07-29 17:14:00,74.3,55.4,0.00,NNW,335,3.7,10.1,52,0.00,,,0.00,WUHU216CR1000,2013-07-30 00:14:00,
2013-07-29 17:19:00,74.3,55.4,0.00,NNW,335,3.7,10.1,52,0.00,,,0.00,WUHU216CR1000,2013-07-30 00:19:00,
2013-07-29 17:24:00,74.3,55.4,0.00,NNW,335,3.7,10.1,52,0.00,,,0.00,WUHU216CR1000,2013-07-30 00:24:00,
2013-07-29 17:30:00,74.3,55.4,0.00,NNW,335,3.7,10.1,52,0.00,,,0.00,WUHU216CR1000,2013-07-30 00:30:00,
2013-07-29 17:35:00,74.3,55.4,0.00,NNW,335,3.7,10.1,52,0.00,,,0.00,WUHU216CR1000,2013-07-30 00:35:00,
2013-07-29 17:40:00,74.3,55.4,0.00,NNW,335,3.7,10.1,52,0.00,,,0.00,WUHU216CR1000,2013-07-30 00:40:00,
2013-07-29 17:45:00,74.3,55.4,0.00,NNW,335,3.7,10.1,52,0.00,,,0.00,WUHU216CR1000,2013-07-30 00:45:00,
2013-07-29 17:50:00,74.3,55.4,0.00,NNW,335,3.7,10.1,52,0.00,,,0.00,WUHU216CR1000,2013-07-30 00:50:00,
2013-07-29 17:55:00,74.3,55.4,0.00,NNW,335,3.7,10.1,52,0.00,,,0.00,WUHU216CR1000,2013-07-30 00:55:00,
2013-07-29 18:00:00,74.3,55.4,0.00,NNW,335,3.7,10.1,52,0.00,,,0.00,WUHU216CR1000,2013-07-30 01:00:00,
2013-07-29 18:05:00,74.3,55.4,0.00,NNW,335,3.7,10.1,52,0.00,,,0.00,WUHU216CR1000,2013-07-30 01:05:00,
2013-07-29 18:10:00,72.1,56.1,0.00,NNW,334,5.2,11.6,57,0.00,,,0.00,WUHU216CR1000,2013-07-30 01:10:00,
2013-07-29 18:15:00,72.1,56.1,0.00,NNW,334,5.2,11.6,57,0.00,,,0.00,WUHU216CR1000,2013-07-30 01:15:00,
2013-07-29 18:20:00,72.1,56.1,0.00,NNW,334,5.2,11.6,57,0.00,,,0.00,WUHU216CR1000,2013-07-30 01:20:00,
2013-07-29 18:25:00,72.1,56.1,0.00,NNW,334,5.2,11.6,57,0.00,,,0.00,WUHU216CR1000,2013-07-30 01:25:00,
2013-07-29 18:31:00,72.1,56.1,0.00,NNW,334,5.2,11.6,57,0.00,,,0.00,WUHU216CR1000,2013-07-30 01:31:00,
2013-07-29 18:36:00,72.1,56.1,0.00,NNW,334,5.2,11.6,57,0.00,,,0.00,WUHU216CR1000,2013-07-30 01:36:00,
2013-07-29 18:41:00,72.1,56.1,0.00,NNW,334,5.2,11.6,57,0.00,,,0.00,WUHU216CR1000,2013-07-30 01:41:00,
2013-07-29 18:47:00,72.1,56.1,0.00,NNW,334,5.2,11.6,57,0.00,,,0.00,WUHU216CR1000,2013-07-30 01:47:00,
2013-07-29 18:52:00,72.1,56.1,0.00,NNW,334,5.2,11.6,57,0.00,,,0.00,WUHU216CR1000,2013-07-30 01:52:00,
2013-07-29 18:57:00,72.1,56.1,0.00,NNW,334,5.2,11.6,57,0.00,,,0.00,WUHU216CR1000,2013-07-30 01:57:00,
2013-07-29 19:02:00,72.1,56.1,0.00,NNW,334,5.2,11.6,57,0.00,,,0.00,WUHU216CR1000,2013-07-30 02:02:00,
2013-07-29 19:07:00,69.7,55.5,0.00,NNW,328,3.6,11.6,61,0.00,,,0.00,WUHU216CR1000,2013-07-30 02:07:00,
2013-07-29 19:12:00,69.7,55.5,0.00,NNW,328,3.6,8.3,61,0.00,,,0.00,WUHU216CR1000,2013-07-30 02:12:00,
2013-07-29 19:18:00,69.7,55.5,0.00,NNW,328,3.6,8.3,61,0.00,,,0.00,WUHU216CR1000,2013-07-30 02:18:00,
2013-07-29 19:23:00,69.7,55.5,0.00,NNW,328,3.6,8.3,61,0.00,,,0.00,WUHU216CR1000,2013-07-30 02:23:00,
2013-07-29 19:28:00,69.7,55.5,0.00,NNW,328,3.6,8.3,61,0.00,,,0.00,WUHU216CR1000,2013-07-30 02:28:00,
2013-07-29 19:33:00,69.7,55.5,0.00,NNW,328,3.6,8.3,61,0.00,,,0.00,WUHU216CR1000,2013-07-30 02:33:00,
2013-07-29 19:38:00,69.7,55.5,0.00,NNW,328,3.6,8.3,61,0.00,,,0.00,WUHU216CR1000,2013-07-30 02:38:00,
2013-07-29 19:43:00,69.7,55.5,0.00,NNW,328,3.6,8.3,61,0.00,,,0.00,WUHU216CR1000,2013-07-30 02:43:00,
2013-07-29 19:49:00,69.7,55.5,0.00,NNW,328,3.6,8.3,61,0.00,,,0.00,WUHU216CR1000,2013-07-30 02:49:00,
2013-07-29 19:54:00,69.7,55.5,0.00,NNW,328,3.6,8.3,61,0.00,,,0.00,WUHU216CR1000,2013-07-30 02:54:00,
2013-07-29 19:59:00,69.7,55.5,0.00,NNW,328,3.6,8.3,61,0.00,,,0.00,WUHU216CR1000,2013-07-30 02:59:00,
2013-07-29 20:04:00,69.7,55.5,0.00,NNW,328,3.6,8.3,61,0.00,,,0.00,WUHU216CR1000,2013-07-30 03:04:00,
2013-07-29 20:09:00,65.7,54.7,0.00,NW,321,1.8,8.3,68,0.00,,,0.00,WUHU216CR1000,2013-07-30 03:09:00,
2013-07-29 20:14:00,65.7,54.7,0.00,NW,321,1.8,5.8,68,0.00,,,0.00,WUHU216CR1000,2013-07-30 03:14:00,
2013-07-29 20:19:00,65.7,54.7,0.00,NW,321,1.8,5.8,68,0.00,,,0.00,WUHU216CR1000,2013-07-30 03:19:00,
2013-07-29 20:25:00,65.7,54.7,0.00,NW,321,1.8,5.8,68,0.00,,,0.00,WUHU216CR1000,2013-07-30 03:25:00,
2013-07-29 20:30:00,65.7,54.7,0.00,NW,321,1.8,5.8,68,0.00,,,0.00,WUHU216CR1000,2013-07-30 03:30:00,
2013-07-29 20:35:00,65.7,54.7,0.00,NW,321,1.8,5.8,68,0.00,,,0.00,WUHU216CR1000,2013-07-30 03:35:00,
2013-07-29 20:40:00,65.7,54.7,0.00,NW,321,1.8,5.8,68,0.00,,,0.00,WUHU216CR1000,2013-07-30 03:40:00,
2013-07-29 20:45:00,65.7,54.7,0.00,NW,321,1.8,5.8,68,0.00,,,0.00,WUHU216CR1000,2013-07-30 03:45:00,
2013-07-29 20:50:00,65.7,54.7,0.00,NW,321,1.8,5.8,68,0.00,,,0.00,WUHU216CR1000,2013-07-30 03:50:00,
2013-07-29 20:55:00,65.7,54.7,0.00,NW,321,1.8,5.8,68,0.00,,,0.00,WUHU216CR1000,2013-07-30 03:55:00,
2013-07-29 21:01:00,65.7,54.7,0.00,NW,321,1.8,5.8,68,0.00,,,0.00,WUHU216CR1000,2013-07-30 04:01:00,
2013-07-29 21:02:00,65.7,54.7,0.00,NW,321,1.8,5.8,68,0.00,,,0.00,WUHU216CR1000,2013-07-30 04:02:00,
2013-07-29 21:07:00,60.6,53.9,0.00,NW,316,0.5,5.8,78,0.00,,,0.00,WUHU216CR1000,2013-07-30 04:07:00,
2013-07-29 21:12:00,60.6,53.9,0.00,NW,316,0.5,5.4,78,0.00,,,0.00,WUHU216CR1000,2013-07-30 04:12:00,
2013-07-29 21:17:00,60.6,53.9,0.00,NW,316,0.5,5.4,78,0.00,,,0.00,WUHU216CR1000,2013-07-30 04:17:00,
2013-07-29 21:22:00,60.6,53.9,0.00,NW,316,0.5,5.4,78,0.00,,,0.00,WUHU216CR1000,2013-07-30 04:22:00,
2013-07-29 21:27:00,60.6,53.9,0.00,NW,316,0.5,5.4,78,0.00,,,0.00,WUHU216CR1000,2013-07-30 04:27:00,
2013-07-29 21:32:00,60.6,53.9,0.00,NW,316,0.5,5.4,78,0.00,,,0.00,WUHU216CR1000,2013-07-30 04:32:00,
2013-07-29 21:37:00,60.6,53.9,0.00,NW,316,0.5,5.4,78,0.00,,,0.00,WUHU216CR1000,2013-07-30 04:37:00,
2013-07-29 21:42:00,60.6,53.9,0.00,NW,316,0.5,5.4,78,0.00,,,0.00,WUHU216CR1000,2013-07-30 04:42:00,
2013-07-29 21:47:00,60.6,53.9,0.00,NW,316,0.5,5.4,78,0.00,,,0.00,WUHU216CR1000,2013-07-30 04:47:00,
2013-07-29 21:52:00,60.6,53.9,0.00,NW,316,0.5,5.4,78,0.00,,,0.00,WUHU216CR1000,2013-07-30 04:52:00,
2013-07-29 21:57:00,60.6,53.9,0.00,NW,316,0.5,5.4,78,0.00,,,0.00,WUHU216CR1000,2013-07-30 04:57:00,
2013-07-29 22:02:00,60.6,53.9,0.00,NW,316,0.5,5.4,78,0.00,,,0.00,WUHU216CR1000,2013-07-30 05:02:00,
2013-07-29 22:07:00,57.2,52.8,0.00,NW,315,0.2,5.6,85,0.00,,,0.00,WUHU216CR1000,2013-07-30 05:07:00,
2013-07-29 22:12:00,57.2,52.8,0.00,NW,315,0.2,5.6,85,0.00,,,0.00,WUHU216CR1000,2013-07-30 05:12:00,
2013-07-29 22:17:00,57.2,52.8,0.00,NW,315,0.2,5.6,85,0.00,,,0.00,WUHU216CR1000,2013-07-30 05:17:00,
2013-07-29 22:22:00,57.2,52.8,0.00,NW,315,0.2,5.6,85,0.00,,,0.00,WUHU216CR1000,2013-07-30 05:22:00,
2013-07-29 22:27:00,57.2,52.8,0.00,NW,315,0.2,5.6,85,0.00,,,0.00,WUHU216CR1000,2013-07-30 05:27:00,
2013-07-29 22:32:00,57.2,52.8,0.00,NW,315,0.2,5.6,85,0.00,,,0.00,WUHU216CR1000,2013-07-30 05:32:00,
2013-07-29 22:37:00,57.2,52.8,0.00,NW,315,0.2,5.6,85,0.00,,,0.00,WUHU216CR1000,2013-07-30 05:37:00,
2013-07-29 22:42:00,57.2,52.8,0.00,NW,315,0.2,5.6,85,0.00,,,0.00,WUHU216CR1000,2013-07-30 05:42:00,
2013-07-29 22:47:00,57.2,52.8,0.00,NW,315,0.2,5.6,85,0.00,,,0.00,WUHU216CR1000,2013-07-30 05:47:00,
2013-07-29 22:52:00,57.2,52.8,0.00,NW,315,0.2,5.6,85,0.00,,,0.00,WUHU216CR1000,2013-07-30 05:52:00,
2013-07-29 22:57:00,57.2,52.8,0.00,NW,315,0.2,5.6,85,0.00,,,0.00,WUHU216CR1000,2013-07-30 05:57:00,
2013-07-29 23:02:00,57.2,52.8,0.00,NW,315,0.2,5.6,85,0.00,,,0.00,WUHU216CR1000,2013-07-30 06:02:00,
2013-07-29 23:07:00,54.1,51.5,0.00,NW,314,0.0,5.6,91,0.00,,,0.00,WUHU216CR1000,2013-07-30 06:07:00,
2013-07-29 23:12:00,54.1,51.5,0.00,NW,314,0.0,2.2,91,0.00,,,0.00,WUHU216CR1000,2013-07-30 06:12:00,
2013-07-29 23:17:00,54.1,51.5,0.00,NW,314,0.0,2.2,91,0.00,,,0.00,WUHU216CR1000,2013-07-30 06:17:00,
2013-07-29 23:22:00,54.1,51.5,0.00,NW,314,0.0,2.2,91,0.00,,,0.00,WUHU216CR1000,2013-07-30 06:22:00,
2013-07-29 23:27:00,54.1,51.5,0.00,NW,314,0.0,2.2,91,0.00,,,0.00,WUHU216CR1000,2013-07-30 06:27:00,
2013-07-29 23:32:00,54.1,51.5,0.00,NW,314,0.0,2.2,91,0.00,,,0.00,WUHU216CR1000,2013-07-30 06:32:00,
2013-07-29 23:37:00,54.1,51.5,0.00,NW,314,0.0,2.2,91,0.00,,,0.00,WUHU216CR1000,2013-07-30 06:37:00,
2013-07-29 23:42:00,54.1,51.5,0.00,NW,314,0.0,2.2,91,0.00,,,0.00,WUHU216CR1000,2013-07-30 06:42:00,
2013-07-29 23:47:00,54.1,51.5,0.00,NW,314,0.0,2.2,91,0.00,,,0.00,WUHU216CR1000,2013-07-30 06:47:00,
2013-07-29 23:52:00,54.1,51.5,0.00,NW,314,0.0,2.2,91,0.00,,,0.00,WUHU216CR1000,2013-07-30 06:52:00,
2013-07-29 23:57:00,54.1,51.5,0.00,NW,314,0.0,2.2,91,0.00,,,0.00,WUHU216CR1000,2013-07-30 06:57:00,